sensor_id;sensor_type;location;lat;lon;timestamp;P1;durP1;ratioP1;P2;durP2;ratioP2
52942;SDS011;38809;53.300;6.614;2023-05-10T00:01:25;6.93;;;5.63;;
52942;SDS011;38809;53.300;6.614;2023-05-10T00:03:51;6.20;;;5.47;;
52942;SDS011;38809;53.300;6.614;2023-05-10T00:06:16;7.72;;;5.40;;
52942;SDS011;38809;53.300;6.614;2023-05-10T00:08:42;7.57;;;6.05;;
52942;SDS011;38809;53.300;6.614;2023-05-10T00:11:08;6.28;;;5.30;;
52942;SDS011;38809;53.300;6.614;2023-05-10T00:13:33;6.47;;;5.68;;
52942;SDS011;38809;53.300;6.614;2023-05-10T00:15:59;7.13;;;6.00;;
52942;SDS011;38809;53.300;6.614;2023-05-10T00:18:24;7.55;;;5.68;;
52942;SDS011;38809;53.300;6.614;2023-05-10T00:20:50;7.13;;;4.80;;
52942;SDS011;38809;53.300;6.614;2023-05-10T00:23:16;7.30;;;5.60;;
52942;SDS011;38809;53.300;6.614;2023-05-10T00:25:42;6.28;;;5.13;;
52942;SDS011;38809;53.300;6.614;2023-05-10T00:28:07;8.07;;;6.05;;
52942;SDS011;38809;53.300;6.614;2023-05-10T00:30:33;6.88;;;5.22;;
52942;SDS011;38809;53.300;6.614;2023-05-10T00:32:59;6.85;;;5.07;;
52942;SDS011;38809;53.300;6.614;2023-05-10T00:35:25;6.45;;;5.03;;
52942;SDS011;38809;53.300;6.614;2023-05-10T00:37:51;6.82;;;4.75;;
52942;SDS011;38809;53.300;6.614;2023-05-10T00:40:16;7.70;;;5.47;;
52942;SDS011;38809;53.300;6.614;2023-05-10T00:42:42;6.03;;;4.38;;
52942;SDS011;38809;53.300;6.614;2023-05-10T00:45:08;7.00;;;5.20;;
52942;SDS011;38809;53.300;6.614;2023-05-10T00:47:34;6.53;;;4.95;;
52942;SDS011;38809;53.300;6.614;2023-05-10T00:50:01;7.70;;;5.38;;
52942;SDS011;38809;53.300;6.614;2023-05-10T00:52:28;6.40;;;4.60;;
52942;SDS011;38809;53.300;6.614;2023-05-10T00:54:54;6.57;;;5.18;;
52942;SDS011;38809;53.300;6.614;2023-05-10T00:57:20;6.05;;;4.90;;
52942;SDS011;38809;53.300;6.614;2023-05-10T00:59:46;6.15;;;5.03;;
52942;SDS011;38809;53.300;6.614;2023-05-10T01:04:38;6.55;;;4.78;;
52942;SDS011;38809;53.300;6.614;2023-05-10T01:07:04;6.18;;;4.75;;
52942;SDS011;38809;53.300;6.614;2023-05-10T01:09:30;7.20;;;4.90;;
52942;SDS011;38809;53.300;6.614;2023-05-10T01:11:56;6.15;;;4.38;;
52942;SDS011;38809;53.300;6.614;2023-05-10T01:14:23;6.07;;;4.88;;
52942;SDS011;38809;53.300;6.614;2023-05-10T01:16:49;5.53;;;4.22;;
52942;SDS011;38809;53.300;6.614;2023-05-10T01:19:28;5.93;;;4.50;;
52942;SDS011;38809;53.300;6.614;2023-05-10T01:25:11;6.25;;;4.40;;
52942;SDS011;38809;53.300;6.614;2023-05-10T01:33:53;6.03;;;4.72;;
52942;SDS011;38809;53.300;6.614;2023-05-10T01:39:32;6.03;;;4.55;;
52942;SDS011;38809;53.300;6.614;2023-05-10T01:42:11;7.00;;;4.95;;
52942;SDS011;38809;53.300;6.614;2023-05-10T01:44:46;5.95;;;4.55;;
52942;SDS011;38809;53.300;6.614;2023-05-10T01:47:24;7.85;;;5.35;;
52942;SDS011;38809;53.300;6.614;2023-05-10T01:50:03;6.00;;;4.80;;
52942;SDS011;38809;53.300;6.614;2023-05-10T01:52:38;7.07;;;5.25;;
52942;SDS011;38809;53.300;6.614;2023-05-10T01:55:09;6.40;;;5.00;;
52942;SDS011;38809;53.300;6.614;2023-05-10T01:57:39;7.53;;;5.40;;
52942;SDS011;38809;53.300;6.614;2023-05-10T02:00:08;8.20;;;5.32;;
52942;SDS011;38809;53.300;6.614;2023-05-10T02:02:39;7.85;;;5.32;;
52942;SDS011;38809;53.300;6.614;2023-05-10T02:05:07;6.90;;;4.93;;
52942;SDS011;38809;53.300;6.614;2023-05-10T02:07:35;6.95;;;5.05;;
52942;SDS011;38809;53.300;6.614;2023-05-10T02:10:06;7.65;;;5.32;;
52942;SDS011;38809;53.300;6.614;2023-05-10T02:12:36;6.43;;;5.07;;
52942;SDS011;38809;53.300;6.614;2023-05-10T02:15:06;7.43;;;5.50;;
52942;SDS011;38809;53.300;6.614;2023-05-10T02:17:32;6.50;;;4.95;;
52942;SDS011;38809;53.300;6.614;2023-05-10T02:20:01;6.45;;;5.07;;
52942;SDS011;38809;53.300;6.614;2023-05-10T02:22:28;7.35;;;5.80;;
52942;SDS011;38809;53.300;6.614;2023-05-10T02:24:55;7.50;;;5.35;;
52942;SDS011;38809;53.300;6.614;2023-05-10T02:27:22;6.82;;;5.35;;
52942;SDS011;38809;53.300;6.614;2023-05-10T02:29:49;7.53;;;5.68;;
52942;SDS011;38809;53.300;6.614;2023-05-10T02:32:16;8.73;;;5.45;;
52942;SDS011;38809;53.300;6.614;2023-05-10T02:34:44;7.18;;;5.70;;
52942;SDS011;38809;53.300;6.614;2023-05-10T02:37:14;7.68;;;5.65;;
52942;SDS011;38809;53.300;6.614;2023-05-10T02:39:43;6.22;;;5.13;;
52942;SDS011;38809;53.300;6.614;2023-05-10T02:42:16;6.63;;;5.15;;
52942;SDS011;38809;53.300;6.614;2023-05-10T02:44:44;6.05;;;4.78;;
52942;SDS011;38809;53.300;6.614;2023-05-10T02:47:13;6.25;;;4.53;;
52942;SDS011;38809;53.300;6.614;2023-05-10T02:49:39;7.07;;;5.60;;
52942;SDS011;38809;53.300;6.614;2023-05-10T02:52:05;7.15;;;5.32;;
52942;SDS011;38809;53.300;6.614;2023-05-10T02:54:35;6.72;;;5.32;;
52942;SDS011;38809;53.300;6.614;2023-05-10T02:57:08;8.07;;;5.63;;
52942;SDS011;38809;53.300;6.614;2023-05-10T02:59:40;7.13;;;5.28;;
52942;SDS011;38809;53.300;6.614;2023-05-10T03:02:08;6.63;;;5.18;;
52942;SDS011;38809;53.300;6.614;2023-05-10T03:04:35;6.68;;;5.45;;
52942;SDS011;38809;53.300;6.614;2023-05-10T03:07:01;9.00;;;6.00;;
52942;SDS011;38809;53.300;6.614;2023-05-10T03:14:30;9.48;;;6.20;;
52942;SDS011;38809;53.300;6.614;2023-05-10T03:17:06;7.82;;;5.95;;
52942;SDS011;38809;53.300;6.614;2023-05-10T03:19:43;9.48;;;6.95;;
52942;SDS011;38809;53.300;6.614;2023-05-10T03:22:31;8.10;;;6.03;;
52942;SDS011;38809;53.300;6.614;2023-05-10T03:25:02;10.68;;;7.20;;
52942;SDS011;38809;53.300;6.614;2023-05-10T03:27:31;9.45;;;7.10;;
52942;SDS011;38809;53.300;6.614;2023-05-10T03:29:58;9.25;;;6.45;;
52942;SDS011;38809;53.300;6.614;2023-05-10T03:32:26;10.13;;;7.97;;
52942;SDS011;38809;53.300;6.614;2023-05-10T03:34:56;10.40;;;7.57;;
52942;SDS011;38809;53.300;6.614;2023-05-10T03:37:22;12.75;;;7.82;;
52942;SDS011;38809;53.300;6.614;2023-05-10T03:39:48;12.38;;;8.02;;
52942;SDS011;38809;53.300;6.614;2023-05-10T03:42:13;11.85;;;8.05;;
52942;SDS011;38809;53.300;6.614;2023-05-10T03:44:39;11.52;;;7.45;;
52942;SDS011;38809;53.300;6.614;2023-05-10T03:47:05;9.38;;;6.72;;
52942;SDS011;38809;53.300;6.614;2023-05-10T03:49:31;9.50;;;7.15;;
52942;SDS011;38809;53.300;6.614;2023-05-10T03:51:57;11.70;;;6.85;;
52942;SDS011;38809;53.300;6.614;2023-05-10T03:54:22;11.23;;;6.63;;
52942;SDS011;38809;53.300;6.614;2023-05-10T03:56:48;9.43;;;6.07;;
52942;SDS011;38809;53.300;6.614;2023-05-10T03:59:14;8.63;;;5.60;;
52942;SDS011;38809;53.300;6.614;2023-05-10T04:01:40;10.32;;;6.53;;
52942;SDS011;38809;53.300;6.614;2023-05-10T04:04:05;8.07;;;5.93;;
52942;SDS011;38809;53.300;6.614;2023-05-10T04:06:31;10.57;;;5.70;;
52942;SDS011;38809;53.300;6.614;2023-05-10T04:08:57;10.48;;;6.65;;
52942;SDS011;38809;53.300;6.614;2023-05-10T04:11:24;8.10;;;5.35;;
52942;SDS011;38809;53.300;6.614;2023-05-10T04:13:50;8.05;;;5.43;;
52942;SDS011;38809;53.300;6.614;2023-05-10T04:16:16;9.30;;;5.85;;
52942;SDS011;38809;53.300;6.614;2023-05-10T04:18:42;6.95;;;5.38;;
52942;SDS011;38809;53.300;6.614;2023-05-10T04:21:11;7.60;;;6.07;;
52942;SDS011;38809;53.300;6.614;2023-05-10T04:23:38;7.20;;;5.07;;
52942;SDS011;38809;53.300;6.614;2023-05-10T04:26:04;7.88;;;5.10;;
52942;SDS011;38809;53.300;6.614;2023-05-10T04:28:30;6.65;;;4.93;;
52942;SDS011;38809;53.300;6.614;2023-05-10T04:31:00;7.82;;;4.85;;
52942;SDS011;38809;53.300;6.614;2023-05-10T04:33:27;7.65;;;5.00;;
52942;SDS011;38809;53.300;6.614;2023-05-10T04:35:53;5.38;;;4.25;;
52942;SDS011;38809;53.300;6.614;2023-05-10T04:38:18;5.40;;;4.40;;
52942;SDS011;38809;53.300;6.614;2023-05-10T04:40:44;5.88;;;4.75;;
52942;SDS011;38809;53.300;6.614;2023-05-10T04:43:10;6.43;;;4.63;;
52942;SDS011;38809;53.300;6.614;2023-05-10T04:45:35;8.40;;;5.40;;
52942;SDS011;38809;53.300;6.614;2023-05-10T04:48:01;5.75;;;4.53;;
52942;SDS011;38809;53.300;6.614;2023-05-10T04:50:27;5.65;;;4.93;;
52942;SDS011;38809;53.300;6.614;2023-05-10T04:52:52;6.05;;;5.03;;
52942;SDS011;38809;53.300;6.614;2023-05-10T04:55:18;5.80;;;4.35;;
52942;SDS011;38809;53.300;6.614;2023-05-10T04:57:44;5.88;;;4.28;;
52942;SDS011;38809;53.300;6.614;2023-05-10T05:00:10;7.47;;;4.93;;
52942;SDS011;38809;53.300;6.614;2023-05-10T05:02:36;6.32;;;5.05;;
52942;SDS011;38809;53.300;6.614;2023-05-10T05:05:01;5.70;;;4.47;;
52942;SDS011;38809;53.300;6.614;2023-05-10T05:07:27;6.35;;;4.75;;
52942;SDS011;38809;53.300;6.614;2023-05-10T05:09:53;6.88;;;5.00;;
52942;SDS011;38809;53.300;6.614;2023-05-10T05:12:19;6.68;;;4.70;;
52942;SDS011;38809;53.300;6.614;2023-05-10T05:14:44;5.38;;;4.45;;
52942;SDS011;38809;53.300;6.614;2023-05-10T05:17:10;6.32;;;4.68;;
52942;SDS011;38809;53.300;6.614;2023-05-10T05:19:35;5.57;;;4.63;;
52942;SDS011;38809;53.300;6.614;2023-05-10T05:22:01;6.00;;;4.25;;
52942;SDS011;38809;53.300;6.614;2023-05-10T05:24:27;5.88;;;4.15;;
52942;SDS011;38809;53.300;6.614;2023-05-10T05:26:53;5.03;;;4.07;;
52942;SDS011;38809;53.300;6.614;2023-05-10T05:29:19;5.10;;;4.22;;
52942;SDS011;38809;53.300;6.614;2023-05-10T05:31:44;6.40;;;4.20;;
52942;SDS011;38809;53.300;6.614;2023-05-10T05:34:10;4.80;;;4.03;;
52942;SDS011;38809;53.300;6.614;2023-05-10T05:36:36;5.00;;;3.92;;
52942;SDS011;38809;53.300;6.614;2023-05-10T05:39:05;4.15;;;3.45;;
52942;SDS011;38809;53.300;6.614;2023-05-10T05:41:30;3.90;;;3.17;;
52942;SDS011;38809;53.300;6.614;2023-05-10T05:43:56;4.70;;;3.40;;
52942;SDS011;38809;53.300;6.614;2023-05-10T05:46:22;2.85;;;2.40;;
52942;SDS011;38809;53.300;6.614;2023-05-10T05:48:47;3.42;;;2.53;;
52942;SDS011;38809;53.300;6.614;2023-05-10T05:51:13;2.65;;;1.90;;
52942;SDS011;38809;53.300;6.614;2023-05-10T05:53:39;1.55;;;1.05;;
52942;SDS011;38809;53.300;6.614;2023-05-10T05:56:04;1.77;;;1.02;;
52942;SDS011;38809;53.300;6.614;2023-05-10T05:58:30;1.70;;;0.90;;
52942;SDS011;38809;53.300;6.614;2023-05-10T06:00:56;1.65;;;0.90;;
52942;SDS011;38809;53.300;6.614;2023-05-10T06:03:22;1.33;;;0.80;;
52942;SDS011;38809;53.300;6.614;2023-05-10T06:05:48;1.13;;;0.60;;
52942;SDS011;38809;53.300;6.614;2023-05-10T06:08:13;0.93;;;0.55;;
52942;SDS011;38809;53.300;6.614;2023-05-10T06:10:39;0.88;;;0.50;;
52942;SDS011;38809;53.300;6.614;2023-05-10T06:13:05;1.23;;;0.68;;
52942;SDS011;38809;53.300;6.614;2023-05-10T06:15:30;1.20;;;0.70;;
52942;SDS011;38809;53.300;6.614;2023-05-10T06:17:57;0.98;;;0.60;;
52942;SDS011;38809;53.300;6.614;2023-05-10T06:20:23;1.10;;;0.63;;
52942;SDS011;38809;53.300;6.614;2023-05-10T06:22:48;1.70;;;0.90;;
52942;SDS011;38809;53.300;6.614;2023-05-10T06:25:14;1.40;;;0.82;;
52942;SDS011;38809;53.300;6.614;2023-05-10T06:27:42;2.03;;;1.10;;
52942;SDS011;38809;53.300;6.614;2023-05-10T06:30:09;1.95;;;1.30;;
52942;SDS011;38809;53.300;6.614;2023-05-10T06:32:35;1.92;;;1.20;;
52942;SDS011;38809;53.300;6.614;2023-05-10T06:35:01;2.00;;;1.33;;
52942;SDS011;38809;53.300;6.614;2023-05-10T06:37:26;2.90;;;1.90;;
52942;SDS011;38809;53.300;6.614;2023-05-10T06:39:52;3.10;;;2.60;;
52942;SDS011;38809;53.300;6.614;2023-05-10T06:42:18;4.93;;;3.85;;
52942;SDS011;38809;53.300;6.614;2023-05-10T06:44:43;6.43;;;4.68;;
52942;SDS011;38809;53.300;6.614;2023-05-10T06:47:09;6.13;;;5.45;;
52942;SDS011;38809;53.300;6.614;2023-05-10T06:49:35;6.88;;;5.97;;
52942;SDS011;38809;53.300;6.614;2023-05-10T06:52:00;7.22;;;5.93;;
52942;SDS011;38809;53.300;6.614;2023-05-10T06:54:26;8.02;;;6.72;;
52942;SDS011;38809;53.300;6.614;2023-05-10T06:56:52;7.40;;;6.20;;
52942;SDS011;38809;53.300;6.614;2023-05-10T06:59:18;7.18;;;6.10;;
52942;SDS011;38809;53.300;6.614;2023-05-10T07:01:44;6.00;;;5.35;;
52942;SDS011;38809;53.300;6.614;2023-05-10T07:04:10;5.75;;;4.93;;
52942;SDS011;38809;53.300;6.614;2023-05-10T07:06:35;4.30;;;3.83;;
52942;SDS011;38809;53.300;6.614;2023-05-10T07:09:01;4.15;;;3.58;;
52942;SDS011;38809;53.300;6.614;2023-05-10T07:11:27;3.45;;;3.15;;
52942;SDS011;38809;53.300;6.614;2023-05-10T07:13:53;4.13;;;3.38;;
52942;SDS011;38809;53.300;6.614;2023-05-10T07:16:18;3.50;;;2.78;;
52942;SDS011;38809;53.300;6.614;2023-05-10T07:18:44;3.92;;;3.30;;
52942;SDS011;38809;53.300;6.614;2023-05-10T07:21:10;3.85;;;3.15;;
52942;SDS011;38809;53.300;6.614;2023-05-10T07:23:35;3.95;;;3.53;;
52942;SDS011;38809;53.300;6.614;2023-05-10T07:26:01;3.97;;;3.25;;
52942;SDS011;38809;53.300;6.614;2023-05-10T07:28:27;4.00;;;3.30;;
52942;SDS011;38809;53.300;6.614;2023-05-10T07:30:53;4.40;;;3.67;;
52942;SDS011;38809;53.300;6.614;2023-05-10T07:33:18;4.53;;;3.72;;
52942;SDS011;38809;53.300;6.614;2023-05-10T07:35:44;4.95;;;3.88;;
52942;SDS011;38809;53.300;6.614;2023-05-10T07:38:10;3.80;;;3.30;;
52942;SDS011;38809;53.300;6.614;2023-05-10T07:40:36;4.88;;;3.22;;
52942;SDS011;38809;53.300;6.614;2023-05-10T07:43:03;3.70;;;3.17;;
52942;SDS011;38809;53.300;6.614;2023-05-10T07:45:28;3.83;;;3.08;;
52942;SDS011;38809;53.300;6.614;2023-05-10T07:47:54;4.15;;;3.00;;
52942;SDS011;38809;53.300;6.614;2023-05-10T07:50:20;3.83;;;3.08;;
52942;SDS011;38809;53.300;6.614;2023-05-10T07:52:46;3.47;;;2.72;;
52942;SDS011;38809;53.300;6.614;2023-05-10T07:55:13;3.67;;;2.80;;
52942;SDS011;38809;53.300;6.614;2023-05-10T07:57:38;3.90;;;2.75;;
52942;SDS011;38809;53.300;6.614;2023-05-10T08:00:05;3.90;;;3.00;;
52942;SDS011;38809;53.300;6.614;2023-05-10T08:02:32;3.30;;;2.67;;
52942;SDS011;38809;53.300;6.614;2023-05-10T08:04:58;3.30;;;2.55;;
52942;SDS011;38809;53.300;6.614;2023-05-10T08:07:24;4.22;;;2.75;;
52942;SDS011;38809;53.300;6.614;2023-05-10T08:09:50;3.17;;;2.58;;
52942;SDS011;38809;53.300;6.614;2023-05-10T08:12:16;3.15;;;2.70;;
52942;SDS011;38809;53.300;6.614;2023-05-10T08:14:42;3.05;;;2.35;;
52942;SDS011;38809;53.300;6.614;2023-05-10T08:17:08;3.10;;;2.40;;
52942;SDS011;38809;53.300;6.614;2023-05-10T08:19:33;4.00;;;2.33;;
52942;SDS011;38809;53.300;6.614;2023-05-10T08:21:59;3.45;;;2.40;;
52942;SDS011;38809;53.300;6.614;2023-05-10T08:24:25;2.92;;;2.40;;
52942;SDS011;38809;53.300;6.614;2023-05-10T08:26:51;3.40;;;2.50;;
52942;SDS011;38809;53.300;6.614;2023-05-10T08:29:17;3.03;;;2.20;;
52942;SDS011;38809;53.300;6.614;2023-05-10T08:31:42;2.97;;;2.22;;
52942;SDS011;38809;53.300;6.614;2023-05-10T08:34:08;3.10;;;1.92;;
52942;SDS011;38809;53.300;6.614;2023-05-10T08:36:34;3.58;;;2.00;;
52942;SDS011;38809;53.300;6.614;2023-05-10T08:38:59;3.10;;;2.13;;
52942;SDS011;38809;53.300;6.614;2023-05-10T08:41:25;3.53;;;2.38;;
52942;SDS011;38809;53.300;6.614;2023-05-10T08:43:52;2.88;;;1.80;;
52942;SDS011;38809;53.300;6.614;2023-05-10T08:46:19;2.13;;;1.40;;
52942;SDS011;38809;53.300;6.614;2023-05-10T08:48:46;2.55;;;1.40;;
52942;SDS011;38809;53.300;6.614;2023-05-10T08:51:14;2.70;;;1.60;;
52942;SDS011;38809;53.300;6.614;2023-05-10T08:53:43;2.60;;;1.65;;
52942;SDS011;38809;53.300;6.614;2023-05-10T08:56:10;1.92;;;1.17;;
52942;SDS011;38809;53.300;6.614;2023-05-10T08:58:36;2.10;;;1.27;;
52942;SDS011;38809;53.300;6.614;2023-05-10T09:03:28;2.05;;;0.88;;
52942;SDS011;38809;53.300;6.614;2023-05-10T09:05:54;1.67;;;0.93;;
52942;SDS011;38809;53.300;6.614;2023-05-10T09:08:20;1.92;;;1.00;;
52942;SDS011;38809;53.300;6.614;2023-05-10T09:10:50;1.90;;;1.05;;
52942;SDS011;38809;53.300;6.614;2023-05-10T09:13:16;2.28;;;0.85;;
52942;SDS011;38809;53.300;6.614;2023-05-10T09:15:43;2.53;;;1.20;;
52942;SDS011;38809;53.300;6.614;2023-05-10T09:18:10;1.75;;;0.90;;
52942;SDS011;38809;53.300;6.614;2023-05-10T09:20:36;2.38;;;1.67;;
52942;SDS011;38809;53.300;6.614;2023-05-10T09:23:01;3.42;;;1.90;;
52942;SDS011;38809;53.300;6.614;2023-05-10T09:25:27;3.55;;;1.88;;
52942;SDS011;38809;53.300;6.614;2023-05-10T09:27:53;4.13;;;2.25;;
52942;SDS011;38809;53.300;6.614;2023-05-10T09:30:23;2.63;;;1.85;;
52942;SDS011;38809;53.300;6.614;2023-05-10T09:32:51;3.78;;;2.38;;
52942;SDS011;38809;53.300;6.614;2023-05-10T09:35:18;4.65;;;2.40;;
52942;SDS011;38809;53.300;6.614;2023-05-10T09:37:46;3.00;;;2.10;;
52942;SDS011;38809;53.300;6.614;2023-05-10T09:40:14;3.97;;;2.20;;
52942;SDS011;38809;53.300;6.614;2023-05-10T09:42:43;3.30;;;2.35;;
52942;SDS011;38809;53.300;6.614;2023-05-10T09:45:30;5.00;;;2.05;;
52942;SDS011;38809;53.300;6.614;2023-05-10T09:47:58;3.88;;;2.28;;
52942;SDS011;38809;53.300;6.614;2023-05-10T09:50:25;3.95;;;2.42;;
52942;SDS011;38809;53.300;6.614;2023-05-10T09:52:58;3.33;;;2.42;;
52942;SDS011;38809;53.300;6.614;2023-05-10T09:55:38;2.90;;;2.25;;
52942;SDS011;38809;53.300;6.614;2023-05-10T09:58:05;3.00;;;2.08;;
52942;SDS011;38809;53.300;6.614;2023-05-10T10:00:35;4.50;;;1.90;;
52942;SDS011;38809;53.300;6.614;2023-05-10T10:03:02;4.35;;;2.13;;
52942;SDS011;38809;53.300;6.614;2023-05-10T10:05:28;3.10;;;2.00;;
52942;SDS011;38809;53.300;6.614;2023-05-10T10:07:55;3.25;;;1.48;;
52942;SDS011;38809;53.300;6.614;2023-05-10T10:10:23;3.03;;;1.85;;
52942;SDS011;38809;53.300;6.614;2023-05-10T10:12:50;2.50;;;1.45;;
52942;SDS011;38809;53.300;6.614;2023-05-10T10:15:16;2.53;;;1.52;;
52942;SDS011;38809;53.300;6.614;2023-05-10T10:17:42;2.90;;;1.60;;
52942;SDS011;38809;53.300;6.614;2023-05-10T10:22:34;2.33;;;1.42;;
52942;SDS011;38809;53.300;6.614;2023-05-10T10:25:01;2.30;;;1.35;;
52942;SDS011;38809;53.300;6.614;2023-05-10T10:33:05;2.20;;;1.38;;
52942;SDS011;38809;53.300;6.614;2023-05-10T10:35:35;2.40;;;1.27;;
52942;SDS011;38809;53.300;6.614;2023-05-10T10:38:01;2.95;;;1.55;;
52942;SDS011;38809;53.300;6.614;2023-05-10T10:40:27;2.10;;;1.27;;
52942;SDS011;38809;53.300;6.614;2023-05-10T10:42:58;2.65;;;1.25;;
52942;SDS011;38809;53.300;6.614;2023-05-10T10:48:46;1.42;;;0.80;;
52942;SDS011;38809;53.300;6.614;2023-05-10T10:51:13;1.30;;;0.70;;
52942;SDS011;38809;53.300;6.614;2023-05-10T10:53:40;2.22;;;1.23;;
52942;SDS011;38809;53.300;6.614;2023-05-10T10:56:06;2.70;;;1.55;;
52942;SDS011;38809;53.300;6.614;2023-05-10T10:58:34;2.88;;;1.52;;
52942;SDS011;38809;53.300;6.614;2023-05-10T11:01:12;2.22;;;1.40;;
52942;SDS011;38809;53.300;6.614;2023-05-10T11:03:40;3.97;;;2.13;;
52942;SDS011;38809;53.300;6.614;2023-05-10T11:08:34;3.53;;;2.30;;
52942;SDS011;38809;53.300;6.614;2023-05-10T11:11:07;5.00;;;2.50;;
52942;SDS011;38809;53.300;6.614;2023-05-10T11:13:34;4.03;;;2.50;;
52942;SDS011;38809;53.300;6.614;2023-05-10T11:16:14;4.07;;;2.50;;
52942;SDS011;38809;53.300;6.614;2023-05-10T11:19:07;3.90;;;2.15;;
52942;SDS011;38809;53.300;6.614;2023-05-10T11:21:34;3.65;;;2.60;;
52942;SDS011;38809;53.300;6.614;2023-05-10T11:24:21;4.88;;;2.70;;
52942;SDS011;38809;53.300;6.614;2023-05-10T11:26:50;4.55;;;2.88;;
52942;SDS011;38809;53.300;6.614;2023-05-10T11:29:17;7.72;;;3.65;;
52942;SDS011;38809;53.300;6.614;2023-05-10T11:31:46;6.25;;;3.70;;
52942;SDS011;38809;53.300;6.614;2023-05-10T11:34:28;9.40;;;3.97;;
52942;SDS011;38809;53.300;6.614;2023-05-10T11:36:59;6.28;;;4.25;;
52942;SDS011;38809;53.300;6.614;2023-05-10T11:39:26;6.03;;;4.13;;
52942;SDS011;38809;53.300;6.614;2023-05-10T11:41:52;6.03;;;4.00;;
52942;SDS011;38809;53.300;6.614;2023-05-10T11:44:18;7.18;;;3.88;;
52942;SDS011;38809;53.300;6.614;2023-05-10T11:46:44;5.95;;;4.25;;
52942;SDS011;38809;53.300;6.614;2023-05-10T11:49:09;5.53;;;3.75;;
52942;SDS011;38809;53.300;6.614;2023-05-10T11:51:36;7.40;;;4.68;;
52942;SDS011;38809;53.300;6.614;2023-05-10T11:54:05;7.60;;;4.65;;
52942;SDS011;38809;53.300;6.614;2023-05-10T11:56:32;7.95;;;4.95;;
52942;SDS011;38809;53.300;6.614;2023-05-10T11:58:59;7.07;;;4.75;;
52942;SDS011;38809;53.300;6.614;2023-05-10T12:01:27;6.95;;;4.43;;
52942;SDS011;38809;53.300;6.614;2023-05-10T12:03:54;6.15;;;4.32;;
52942;SDS011;38809;53.300;6.614;2023-05-10T12:06:31;7.50;;;4.90;;
52942;SDS011;38809;53.300;6.614;2023-05-10T12:09:02;7.55;;;4.07;;
52942;SDS011;38809;53.300;6.614;2023-05-10T12:11:31;8.70;;;4.72;;
52942;SDS011;38809;53.300;6.614;2023-05-10T12:13:57;8.38;;;4.68;;
52942;SDS011;38809;53.300;6.614;2023-05-10T12:16:24;7.22;;;4.55;;
52942;SDS011;38809;53.300;6.614;2023-05-10T12:18:53;7.93;;;4.60;;
52942;SDS011;38809;53.300;6.614;2023-05-10T12:21:21;6.20;;;4.25;;
52942;SDS011;38809;53.300;6.614;2023-05-10T12:23:48;8.38;;;4.72;;
52942;SDS011;38809;53.300;6.614;2023-05-10T12:26:18;7.25;;;4.70;;
52942;SDS011;38809;53.300;6.614;2023-05-10T12:28:46;6.68;;;4.57;;
52942;SDS011;38809;53.300;6.614;2023-05-10T12:31:12;8.55;;;5.20;;
52942;SDS011;38809;53.300;6.614;2023-05-10T12:33:42;7.13;;;5.10;;
52942;SDS011;38809;53.300;6.614;2023-05-10T12:36:09;9.48;;;5.57;;
52942;SDS011;38809;53.300;6.614;2023-05-10T12:38:36;8.35;;;5.07;;
52942;SDS011;38809;53.300;6.614;2023-05-10T12:43:40;8.65;;;5.00;;
52942;SDS011;38809;53.300;6.614;2023-05-10T12:48:36;10.20;;;5.80;;
52942;SDS011;38809;53.300;6.614;2023-05-10T12:51:04;8.30;;;5.32;;
52942;SDS011;38809;53.300;6.614;2023-05-10T12:53:30;8.55;;;5.25;;
52942;SDS011;38809;53.300;6.614;2023-05-10T12:55:56;7.18;;;5.05;;
52942;SDS011;38809;53.300;6.614;2023-05-10T12:58:22;7.95;;;4.82;;
52942;SDS011;38809;53.300;6.614;2023-05-10T13:00:48;8.30;;;5.32;;
52942;SDS011;38809;53.300;6.614;2023-05-10T13:03:16;7.40;;;4.40;;
52942;SDS011;38809;53.300;6.614;2023-05-10T13:05:42;6.68;;;4.18;;
52942;SDS011;38809;53.300;6.614;2023-05-10T13:08:08;9.43;;;4.28;;
52942;SDS011;38809;53.300;6.614;2023-05-10T13:10:33;4.45;;;3.20;;
52942;SDS011;38809;53.300;6.614;2023-05-10T13:12:59;6.05;;;3.53;;
52942;SDS011;38809;53.300;6.614;2023-05-10T13:15:25;6.10;;;3.38;;
52942;SDS011;38809;53.300;6.614;2023-05-10T13:17:51;5.18;;;3.50;;
52942;SDS011;38809;53.300;6.614;2023-05-10T13:22:43;5.75;;;3.50;;
52942;SDS011;38809;53.300;6.614;2023-05-10T13:27:35;4.00;;;2.45;;
52942;SDS011;38809;53.300;6.614;2023-05-10T13:32:28;4.47;;;2.72;;
52942;SDS011;38809;53.300;6.614;2023-05-10T13:34:54;4.97;;;2.80;;
52942;SDS011;38809;53.300;6.614;2023-05-10T13:37:20;3.50;;;2.50;;
52942;SDS011;38809;53.300;6.614;2023-05-10T13:39:46;4.70;;;3.03;;
52942;SDS011;38809;53.300;6.614;2023-05-10T13:42:12;4.22;;;2.88;;
52942;SDS011;38809;53.300;6.614;2023-05-10T13:44:38;4.95;;;2.90;;
52942;SDS011;38809;53.300;6.614;2023-05-10T13:47:05;5.93;;;2.85;;
52942;SDS011;38809;53.300;6.614;2023-05-10T13:49:31;5.13;;;2.83;;
52942;SDS011;38809;53.300;6.614;2023-05-10T13:51:57;4.32;;;2.60;;
52942;SDS011;38809;53.300;6.614;2023-05-10T13:54:23;3.97;;;2.58;;
52942;SDS011;38809;53.300;6.614;2023-05-10T13:56:49;3.63;;;2.40;;
52942;SDS011;38809;53.300;6.614;2023-05-10T13:59:15;3.83;;;2.60;;
52942;SDS011;38809;53.300;6.614;2023-05-10T14:01:41;3.85;;;2.38;;
52942;SDS011;38809;53.300;6.614;2023-05-10T14:04:07;2.80;;;2.10;;
52942;SDS011;38809;53.300;6.614;2023-05-10T14:06:35;3.78;;;2.40;;
52942;SDS011;38809;53.300;6.614;2023-05-10T14:09:02;3.90;;;2.65;;
52942;SDS011;38809;53.300;6.614;2023-05-10T14:11:28;3.70;;;2.70;;
52942;SDS011;38809;53.300;6.614;2023-05-10T14:13:54;5.60;;;3.95;;
52942;SDS011;38809;53.300;6.614;2023-05-10T14:16:20;5.03;;;3.78;;
52942;SDS011;38809;53.300;6.614;2023-05-10T14:18:46;6.57;;;4.55;;
52942;SDS011;38809;53.300;6.614;2023-05-10T14:21:11;4.72;;;3.67;;
52942;SDS011;38809;53.300;6.614;2023-05-10T14:23:37;6.88;;;4.38;;
52942;SDS011;38809;53.300;6.614;2023-05-10T14:26:03;7.35;;;4.75;;
52942;SDS011;38809;53.300;6.614;2023-05-10T14:28:29;9.85;;;6.13;;
52942;SDS011;38809;53.300;6.614;2023-05-10T14:30:55;9.32;;;6.15;;
52942;SDS011;38809;53.300;6.614;2023-05-10T14:33:21;10.93;;;6.35;;
52942;SDS011;38809;53.300;6.614;2023-05-10T14:35:47;9.80;;;6.72;;
52942;SDS011;38809;53.300;6.614;2023-05-10T14:38:13;9.90;;;7.03;;
52942;SDS011;38809;53.300;6.614;2023-05-10T14:40:39;10.50;;;7.40;;
52942;SDS011;38809;53.300;6.614;2023-05-10T14:43:05;12.27;;;8.00;;
52942;SDS011;38809;53.300;6.614;2023-05-10T14:45:31;10.30;;;7.00;;
52942;SDS011;38809;53.300;6.614;2023-05-10T14:47:57;11.75;;;7.80;;
52942;SDS011;38809;53.300;6.614;2023-05-10T14:50:23;11.02;;;7.45;;
52942;SDS011;38809;53.300;6.614;2023-05-10T14:52:48;11.32;;;7.40;;
52942;SDS011;38809;53.300;6.614;2023-05-10T14:57:40;11.23;;;7.55;;
52942;SDS011;38809;53.300;6.614;2023-05-10T15:00:06;9.30;;;6.88;;
52942;SDS011;38809;53.300;6.614;2023-05-10T15:04:58;11.85;;;8.88;;
52942;SDS011;38809;53.300;6.614;2023-05-10T15:07:24;11.57;;;7.00;;
52942;SDS011;38809;53.300;6.614;2023-05-10T15:09:50;10.95;;;6.80;;
52942;SDS011;38809;53.300;6.614;2023-05-10T15:12:19;9.55;;;7.00;;
52942;SDS011;38809;53.300;6.614;2023-05-10T15:14:45;9.07;;;6.20;;
52942;SDS011;38809;53.300;6.614;2023-05-10T15:17:11;7.60;;;5.80;;
52942;SDS011;38809;53.300;6.614;2023-05-10T15:19:37;7.43;;;5.60;;
52942;SDS011;38809;53.300;6.614;2023-05-10T15:22:04;8.68;;;5.43;;
52942;SDS011;38809;53.300;6.614;2023-05-10T15:24:30;8.68;;;5.20;;
52942;SDS011;38809;53.300;6.614;2023-05-10T15:26:56;7.57;;;5.30;;
52942;SDS011;38809;53.300;6.614;2023-05-10T15:29:22;5.43;;;4.55;;
52942;SDS011;38809;53.300;6.614;2023-05-10T15:31:48;5.45;;;3.85;;
52942;SDS011;38809;53.300;6.614;2023-05-10T15:34:16;4.75;;;3.65;;
52942;SDS011;38809;53.300;6.614;2023-05-10T15:36:43;4.95;;;3.92;;
52942;SDS011;38809;53.300;6.614;2023-05-10T15:41:35;4.70;;;3.40;;
52942;SDS011;38809;53.300;6.614;2023-05-10T15:44:01;5.15;;;3.70;;